KHQM/HQM METAR and TAF weather

Enter ICAO airport designator
Station Type Date Time Source
KHQM METAR 2019/07/20 19:53 UTC NOAA

KHQM 201953Z AUTO 28010KT 9SM CLR 21/14 A3009 RMK AO2 SLP193 T02060139


Station Type Date Time Source
KHQM Decoded METAR 2019/07/20 19:53 UTC NOAA

HOQUIAM BOWERMAN AIRPORT, WA, United States (KHQM) 46-58N 123-56W 7M
Jul 20, 2019 - 03:53 PM EDT / 2019.07.20 1953 UTC
Wind: from the W (280 degrees) at 12 MPH (10 KT):0
Visibility: 9 mile(s):0
Sky conditions: clear
Temperature: 69.1 F (20.6 C)
Dew Point: 57.0 F (13.9 C)
Relative Humidity: 65%
Pressure (altimeter): 30.09 in. Hg (1018 hPa)
ob: KHQM 201953Z AUTO 28010KT 9SM CLR 21/14 A3009 RMK AO2 SLP193 T02060139
cycle: 20

Station Type Date Time Source
KHQM TAF 2019/07/20 18:30 UTC NOAA

TAF KHQM 201728Z 2018/2118 13006KT P6SM SKC
FM202000 26011KT P6SM SKC
FM210500 VRB03KT P6SM FEW250
FM210900 VRB03KT 4SM BR OVC007
FM211700 VRB04KT P6SM FEW009

Example: see airport list